createdAt,value
2023-01-28T00:01:14.462Z,66.79
2023-01-28T00:03:17.517Z,66.67
2023-01-28T00:05:20.500Z,66.76
2023-01-28T00:07:23.475Z,66.41
2023-01-28T00:09:26.687Z,66.78
2023-01-28T00:11:29.680Z,66.66
2023-01-28T00:13:35.196Z,66.93
2023-01-28T00:15:38.236Z,67.05
2023-01-28T00:17:41.268Z,67.05
2023-01-28T00:19:44.932Z,67.12
2023-01-28T00:21:47.983Z,67.27
2023-01-28T00:23:54.228Z,67.44
2023-01-28T00:25:59.824Z,67.81
2023-01-28T00:28:02.840Z,67.92
2023-01-28T00:30:08.595Z,68.07
2023-01-28T00:32:12.642Z,68.07
2023-01-28T00:34:15.791Z,67.85
2023-01-28T00:36:20.146Z,67.90
2023-01-28T00:38:24.470Z,67.65
2023-01-28T00:40:27.488Z,68.01
2023-01-28T00:42:30.614Z,67.87
2023-01-28T00:44:33.646Z,67.86
2023-01-28T00:46:41.902Z,68.23
2023-01-28T00:48:45.488Z,68.50
2023-01-28T00:50:48.981Z,68.52
2023-01-28T00:52:51.991Z,68.56
2023-01-28T00:54:55.012Z,68.51
2023-01-28T00:56:58.049Z,68.23
2023-01-28T00:59:01.135Z,68.45
2023-01-28T01:01:09.392Z,68.31
2023-01-28T01:03:14.078Z,68.46
2023-01-28T01:05:17.475Z,68.42
2023-01-28T01:07:20.592Z,68.64
2023-01-28T01:09:24.525Z,68.95
2023-01-28T01:11:27.579Z,69.15
2023-01-28T01:13:31.206Z,69.24
2023-01-28T01:15:34.718Z,69.16
2023-01-28T01:17:40.317Z,69.14
2023-01-28T01:19:44.757Z,68.92
2023-01-28T01:21:50.627Z,68.95
2023-01-28T01:23:54.555Z,68.97
2023-01-28T01:25:58.989Z,69.05
2023-01-28T01:28:01.941Z,68.86
2023-01-28T01:30:05.731Z,68.84
2023-01-28T01:32:09.935Z,69.27
2023-01-28T01:34:13.077Z,69.29
2023-01-28T01:36:20.230Z,69.39
2023-01-28T01:38:23.282Z,69.38
2023-01-28T01:40:26.343Z,69.30
2023-01-28T01:42:29.589Z,69.14
2023-01-28T01:44:56.287Z,69.04
2023-01-28T01:46:59.561Z,68.76
2023-01-28T01:49:13.400Z,68.91
2023-01-28T01:51:21.120Z,68.91
2023-01-28T01:53:27.690Z,68.90
2023-01-28T01:55:37.649Z,68.95
2023-01-28T01:57:41.836Z,69.03
2023-01-28T01:59:45.882Z,69.03
2023-01-28T02:01:49.648Z,69.34
2023-01-28T02:04:01.161Z,69.41
2023-01-28T02:06:04.291Z,69.61
2023-01-28T02:08:25.489Z,69.49
2023-01-28T02:10:28.649Z,69.56
2023-01-28T02:12:36.110Z,69.73
2023-01-28T02:14:43.895Z,70.01
2023-01-28T02:16:47.085Z,70.03
2023-01-28T02:18:50.108Z,70.12
2023-01-28T02:21:13.818Z,70.02
2023-01-28T02:23:34.304Z,70.33
2023-01-28T02:26:04.018Z,70.24
2023-01-28T02:28:16.985Z,70.30
2023-01-28T02:30:23.934Z,70.57
2023-01-28T02:32:33.424Z,70.55
2023-01-28T02:34:42.562Z,70.53
2023-01-28T02:36:49.939Z,70.58
2023-01-28T02:38:54.596Z,70.36
2023-01-28T02:41:06.930Z,70.19
2023-01-28T02:43:09.952Z,70.20
2023-01-28T02:45:46.481Z,70.27
2023-01-28T02:47:58.447Z,70.30
2023-01-28T02:50:03.294Z,70.25
2023-01-28T02:52:58.856Z,70.31
2023-01-28T02:55:10.462Z,70.45
2023-01-28T02:57:25.712Z,70.18
2023-01-28T02:59:33.888Z,70.31
2023-01-28T03:01:44.630Z,70.41
2023-01-28T03:03:59.071Z,70.28
2023-01-28T03:06:07.846Z,70.58
2023-01-28T03:08:26.574Z,70.46
2023-01-28T03:10:30.308Z,70.67
2023-01-28T03:12:53.791Z,70.69
2023-01-28T03:15:17.980Z,70.64
2023-01-28T03:17:45.434Z,70.65
2023-01-28T03:20:07.080Z,70.72
2023-01-28T03:22:27.601Z,70.86
2023-01-28T03:24:51.802Z,70.95
2023-01-28T03:27:16.794Z,71.03
2023-01-28T03:29:42.620Z,71.15
2023-01-28T03:32:06.259Z,71.03
2023-01-28T03:34:29.733Z,71.01
2023-01-28T03:36:49.468Z,71.10
2023-01-28T03:39:29.358Z,71.11
2023-01-28T03:41:32.560Z,71.01
2023-01-28T03:43:35.706Z,71.00
2023-01-28T03:45:39.193Z,71.24
2023-01-28T03:47:44.156Z,71.26
2023-01-28T03:49:52.804Z,71.48
2023-01-28T03:51:57.950Z,71.41
2023-01-28T03:54:01.010Z,71.29
2023-01-28T03:56:04.107Z,71.25
2023-01-28T03:58:07.518Z,71.12
2023-01-28T04:00:13.173Z,71.33
2023-01-28T04:02:19.599Z,71.22
2023-01-28T04:04:24.596Z,71.28
2023-01-28T04:06:32.363Z,71.22
2023-01-28T04:08:48.990Z,71.02
2023-01-28T04:11:15.696Z,70.92
2023-01-28T04:13:21.039Z,70.95
2023-01-28T04:15:24.063Z,71.15
2023-01-28T04:17:27.077Z,71.31
2023-01-28T04:19:31.710Z,71.34
2023-01-28T04:21:37.090Z,71.55
2023-01-28T04:23:41.008Z,71.66
2023-01-28T04:25:45.071Z,71.72
2023-01-28T04:27:48.249Z,71.85
2023-01-28T04:29:55.265Z,71.97
2023-01-28T04:32:27.667Z,71.96
2023-01-28T04:34:44.703Z,72.13
2023-01-28T04:37:07.599Z,72.28
2023-01-28T04:39:27.665Z,72.26
2023-01-28T04:41:56.855Z,72.41
2023-01-28T04:44:13.678Z,72.54
2023-01-28T04:46:46.075Z,72.61
2023-01-28T04:48:52.809Z,72.55
2023-01-28T04:51:16.267Z,72.70
2023-01-28T04:53:34.349Z,72.89
2023-01-28T04:55:43.406Z,73.10
2023-01-28T04:57:48.614Z,72.97
2023-01-28T04:59:51.697Z,73.01
2023-01-28T05:01:54.907Z,73.19
2023-01-28T05:03:58.238Z,73.41
2023-01-28T05:06:04.490Z,73.46
2023-01-28T05:08:16.287Z,73.57
2023-01-28T05:10:24.131Z,73.42
2023-01-28T05:12:27.706Z,73.53
2023-01-28T05:14:32.450Z,73.66
2023-01-28T05:16:42.099Z,73.90
2023-01-28T05:18:47.924Z,73.86
2023-01-28T05:20:52.879Z,73.84
2023-01-28T05:22:55.978Z,73.79
2023-01-28T05:25:03.850Z,73.86
2023-01-28T05:27:08.535Z,73.84
2023-01-28T05:29:12.412Z,74.06
2023-01-28T05:31:15.977Z,74.19
2023-01-28T05:33:19.219Z,74.03
2023-01-28T05:35:22.252Z,74.01
2023-01-28T05:37:25.306Z,74.15
2023-01-28T05:39:32.443Z,74.42
2023-01-28T05:41:35.890Z,74.37
2023-01-28T05:43:41.232Z,74.47
2023-01-28T05:46:22.757Z,74.78
2023-01-28T05:48:52.599Z,74.94
2023-01-28T05:51:27.907Z,75.11
2023-01-28T05:53:33.728Z,75.28
2023-01-28T05:55:37.313Z,75.48
2023-01-28T05:57:40.367Z,75.38
2023-01-28T05:59:46.209Z,75.38
2023-01-28T06:01:49.611Z,75.51
2023-01-28T06:03:52.871Z,75.56
2023-01-28T06:05:56.000Z,75.69
2023-01-28T06:07:59.056Z,75.62
2023-01-28T06:10:02.257Z,75.78
2023-01-28T06:12:06.387Z,75.91
2023-01-28T06:14:19.132Z,75.75
2023-01-28T06:16:44.099Z,75.81
2023-01-28T06:18:58.359Z,75.64
2023-01-28T06:21:01.775Z,75.56
2023-01-28T06:23:04.796Z,75.54
2023-01-28T06:25:09.008Z,75.49
2023-01-28T06:27:12.061Z,75.53
2023-01-28T06:29:15.152Z,75.47
2023-01-28T06:31:19.135Z,75.31
2023-01-28T06:33:24.329Z,75.29
2023-01-28T06:35:27.821Z,75.45
2023-01-28T06:37:30.885Z,75.45
2023-01-28T06:39:33.971Z,75.43
2023-01-28T06:41:36.960Z,75.45
2023-01-28T06:43:39.982Z,75.62
2023-01-28T06:45:43.212Z,75.57
2023-01-28T06:47:46.277Z,75.64
2023-01-28T06:49:50.747Z,75.72
2023-01-28T06:51:53.870Z,75.80
2023-01-28T06:53:56.909Z,75.87
2023-01-28T06:55:59.985Z,75.80
2023-01-28T06:58:03.060Z,75.89
2023-01-28T07:00:08.442Z,75.94
2023-01-28T07:02:12.419Z,76.15
2023-01-28T07:04:15.614Z,76.21
2023-01-28T07:06:20.039Z,76.34
2023-01-28T07:08:23.102Z,76.20
2023-01-28T07:10:26.161Z,76.37
2023-01-28T07:12:29.271Z,76.44
2023-01-28T07:14:32.312Z,76.48
2023-01-28T07:16:35.398Z,76.56
2023-01-28T07:18:38.434Z,76.60
2023-01-28T07:20:41.510Z,76.72
2023-01-28T07:22:49.912Z,76.79
2023-01-28T07:24:52.976Z,77.03
2023-01-28T07:26:56.082Z,77.00
2023-01-28T07:29:00.284Z,77.10
2023-01-28T07:31:03.597Z,77.11
2023-01-28T07:33:06.787Z,77.21
2023-01-28T07:35:10.388Z,77.39
2023-01-28T07:37:13.626Z,77.35
2023-01-28T07:39:18.091Z,77.56
2023-01-28T07:41:21.194Z,77.63
2023-01-28T07:43:24.268Z,77.60
2023-01-28T07:45:28.741Z,77.67
2023-01-28T07:47:31.963Z,77.52
2023-01-28T07:49:35.425Z,77.77
2023-01-28T07:51:38.434Z,77.86
2023-01-28T07:53:41.918Z,77.90
2023-01-28T07:55:46.359Z,77.96
2023-01-28T07:57:51.051Z,77.99
2023-01-28T07:59:54.159Z,77.98
2023-01-28T08:01:57.198Z,78.08
2023-01-28T08:04:00.267Z,78.10
2023-01-28T08:06:03.373Z,78.12
2023-01-28T08:08:07.041Z,78.23
2023-01-28T08:10:11.484Z,78.23
2023-01-28T08:12:16.201Z,78.29
2023-01-28T08:14:19.333Z,78.33
2023-01-28T08:16:22.376Z,78.23
2023-01-28T08:18:25.420Z,78.45
2023-01-28T08:20:30.045Z,78.64
2023-01-28T08:22:33.105Z,78.46
2023-01-28T08:24:36.139Z,78.38
2023-01-28T08:26:39.199Z,78.52
2023-01-28T08:28:43.736Z,78.32
2023-01-28T08:30:47.786Z,78.46
2023-01-28T08:32:50.909Z,78.33
2023-01-28T08:34:53.912Z,78.29
2023-01-28T08:36:57.112Z,78.35
2023-01-28T08:39:02.689Z,78.33
2023-01-28T08:41:06.062Z,78.29
2023-01-28T08:43:09.369Z,78.23
2023-01-28T08:45:14.067Z,78.08
2023-01-28T08:47:17.088Z,77.96
2023-01-28T08:49:20.127Z,77.87
2023-01-28T08:51:23.356Z,77.46
2023-01-28T08:53:26.499Z,77.41
2023-01-28T08:55:30.046Z,77.11
2023-01-28T08:57:33.126Z,76.95
2023-01-28T08:59:36.202Z,76.61
2023-01-28T09:01:40.767Z,76.47
2023-01-28T09:03:43.895Z,75.88
2023-01-28T09:05:46.997Z,75.73
2023-01-28T09:07:50.873Z,75.59
2023-01-28T09:09:53.880Z,75.20
2023-01-28T09:11:56.944Z,74.85
2023-01-28T09:14:00.164Z,74.55
2023-01-28T09:16:06.331Z,74.29
2023-01-28T09:18:10.859Z,73.88
2023-01-28T09:20:14.386Z,73.73
2023-01-28T09:22:17.876Z,73.46
2023-01-28T09:24:21.331Z,73.08
2023-01-28T09:26:24.471Z,72.90
2023-01-28T09:28:27.463Z,72.71
2023-01-28T09:30:30.907Z,72.50
2023-01-28T09:32:33.994Z,72.13
2023-01-28T09:34:39.152Z,71.83
2023-01-28T09:36:42.295Z,71.60
2023-01-28T09:38:45.316Z,71.56
2023-01-28T09:40:48.764Z,71.37
2023-01-28T09:43:04.695Z,70.94
2023-01-28T09:45:16.198Z,70.65
2023-01-28T09:47:23.611Z,70.51
2023-01-28T09:49:36.176Z,70.57
2023-01-28T09:51:43.142Z,70.33
2023-01-28T09:53:50.125Z,70.07
2023-01-28T09:55:58.187Z,69.71
2023-01-28T09:58:01.314Z,69.59
2023-01-28T10:00:04.767Z,69.41
2023-01-28T10:02:43.540Z,69.15
2023-01-28T10:04:59.731Z,69.19
2023-01-28T10:07:18.296Z,69.13
2023-01-28T10:09:31.066Z,68.74
2023-01-28T10:11:52.751Z,68.38
2023-01-28T10:14:01.264Z,68.37
2023-01-28T10:16:25.801Z,68.06
2023-01-28T10:18:36.845Z,67.90
2023-01-28T10:20:44.786Z,67.45
2023-01-28T10:22:53.403Z,67.31
2023-01-28T10:25:02.045Z,67.19
2023-01-28T10:27:13.708Z,67.27
2023-01-28T10:29:18.293Z,67.27
2023-01-28T10:31:23.131Z,67.13
2023-01-28T10:33:32.503Z,67.21
2023-01-28T10:35:41.465Z,67.14
2023-01-28T10:37:44.997Z,67.16
2023-01-28T10:39:49.657Z,66.80
2023-01-28T10:41:58.175Z,67.00
2023-01-28T10:44:01.736Z,67.23
2023-01-28T10:46:11.934Z,67.09
2023-01-28T10:48:22.410Z,67.12
2023-01-28T10:50:28.173Z,67.03
2023-01-28T10:52:31.226Z,66.70
2023-01-28T10:54:34.405Z,66.56
2023-01-28T10:56:38.943Z,66.60
2023-01-28T10:58:52.803Z,66.56
2023-01-28T11:00:58.976Z,66.80
2023-01-28T11:03:02.253Z,66.80
2023-01-28T11:05:08.554Z,66.49
2023-01-28T11:07:19.445Z,66.51
2023-01-28T11:09:24.881Z,66.64
2023-01-28T11:11:29.795Z,66.69
2023-01-28T11:13:34.348Z,66.48
2023-01-28T11:15:47.209Z,66.59
2023-01-28T11:17:57.544Z,66.46
2023-01-28T11:20:10.387Z,66.21
2023-01-28T11:22:24.149Z,66.35
2023-01-28T11:24:31.123Z,66.17
2023-01-28T11:26:37.877Z,65.84
2023-01-28T11:28:44.864Z,65.69
2023-01-28T11:30:53.786Z,65.41
2023-01-28T11:33:05.403Z,65.21
2023-01-28T11:35:08.610Z,64.81
2023-01-28T11:37:16.269Z,64.53
2023-01-28T11:39:22.364Z,64.49
2023-01-28T11:41:29.209Z,64.22
2023-01-28T11:43:33.243Z,64.05
2023-01-28T11:45:45.234Z,63.97
2023-01-28T11:48:08.461Z,63.81
2023-01-28T11:50:24.419Z,63.88
2023-01-28T11:53:02.462Z,64.21
2023-01-28T11:55:19.277Z,64.33
2023-01-28T11:57:25.580Z,64.52
2023-01-28T11:59:51.297Z,64.72
2023-01-28T12:02:00.365Z,64.60
2023-01-28T12:04:18.801Z,64.22
2023-01-28T12:06:37.773Z,64.20
2023-01-28T12:08:51.073Z,64.11
2023-01-28T12:11:20.916Z,64.19
2023-01-28T12:13:37.527Z,64.16
2023-01-28T12:16:01.447Z,63.87
2023-01-28T12:18:19.968Z,63.98
2023-01-28T12:20:32.041Z,63.70
2023-01-28T12:22:58.132Z,63.62
2023-01-28T12:25:19.202Z,63.23
2023-01-28T12:27:36.040Z,63.11
2023-01-28T12:29:49.862Z,62.70
2023-01-28T12:32:09.872Z,62.18
2023-01-28T12:34:44.212Z,62.12
2023-01-28T12:36:57.374Z,62.46
2023-01-28T12:39:10.798Z,62.57
2023-01-28T12:41:17.612Z,62.62
2023-01-28T12:43:28.184Z,62.58
2023-01-28T12:45:38.862Z,62.66
2023-01-28T12:47:48.256Z,62.96
2023-01-28T12:49:57.234Z,62.63
2023-01-28T12:52:05.996Z,62.82
2023-01-28T12:54:18.078Z,62.98
2023-01-28T12:56:26.995Z,62.58
2023-01-28T12:58:40.923Z,62.83
2023-01-28T13:00:49.792Z,62.70
2023-01-28T13:03:02.080Z,63.02
2023-01-28T13:05:13.310Z,63.08
2023-01-28T13:07:21.976Z,63.20
2023-01-28T13:09:28.045Z,63.06
2023-01-28T13:11:36.673Z,63.35
2023-01-28T13:13:42.300Z,63.31
2023-01-28T13:15:47.237Z,63.53
2023-01-28T13:17:58.683Z,63.76
2023-01-28T13:20:01.880Z,64.04
2023-01-28T13:22:14.785Z,64.35
2023-01-28T13:24:33.700Z,64.17
2023-01-28T13:26:45.411Z,63.88
2023-01-28T13:28:49.908Z,63.07
2023-01-28T13:30:53.583Z,62.73
2023-01-28T13:32:59.826Z,62.36
2023-01-28T13:35:06.575Z,62.29
2023-01-28T13:37:26.777Z,62.41
2023-01-28T13:39:31.980Z,62.67
2023-01-28T13:41:40.036Z,62.76
2023-01-28T13:43:43.901Z,62.26
2023-01-28T13:45:57.551Z,62.69
2023-01-28T13:48:14.626Z,62.77
2023-01-28T13:50:23.042Z,62.93
2023-01-28T13:52:31.867Z,63.03
2023-01-28T13:54:37.741Z,63.18
2023-01-28T13:56:43.488Z,63.28
2023-01-28T13:59:34.440Z,63.20
2023-01-28T14:01:58.754Z,63.32
2023-01-28T14:04:31.434Z,63.42
2023-01-28T14:07:02.164Z,63.86
2023-01-28T14:09:32.889Z,63.70
2023-01-28T14:12:05.109Z,63.90
2023-01-28T14:14:28.246Z,64.29
2023-01-28T14:16:39.752Z,64.24
2023-01-28T14:18:44.517Z,64.28
2023-01-28T14:20:47.914Z,64.68
2023-01-28T14:22:51.693Z,64.67
2023-01-28T14:24:58.740Z,64.79
2023-01-28T14:27:09.053Z,64.90
2023-01-28T14:29:27.165Z,64.90
2023-01-28T14:31:34.096Z,65.31
2023-01-28T14:33:38.169Z,65.40
2023-01-28T14:35:46.262Z,65.53
2023-01-28T14:37:49.431Z,65.46
2023-01-28T14:39:54.396Z,65.75
2023-01-28T14:42:01.141Z,65.79
2023-01-28T14:44:04.343Z,65.69
2023-01-28T14:46:20.420Z,65.84
2023-01-28T14:48:27.277Z,65.80
2023-01-28T14:50:51.055Z,65.78
2023-01-28T14:53:15.180Z,65.88
2023-01-28T14:55:31.265Z,66.01
2023-01-28T14:57:49.823Z,66.15
2023-01-28T14:59:55.132Z,65.96
2023-01-28T15:02:00.690Z,65.98
2023-01-28T15:04:03.845Z,65.94
2023-01-28T15:06:12.956Z,66.19
2023-01-28T15:08:22.702Z,66.42
2023-01-28T15:10:29.293Z,66.39
2023-01-28T15:12:36.766Z,66.46
2023-01-28T15:14:42.225Z,66.63
2023-01-28T15:16:49.463Z,66.79
2023-01-28T15:18:53.147Z,66.78
2023-01-28T15:20:57.136Z,66.82
2023-01-28T15:23:03.152Z,66.96
2023-01-28T15:25:06.701Z,67.26
2023-01-28T15:27:18.937Z,67.46
2023-01-28T15:29:26.601Z,67.66
2023-01-28T15:31:32.835Z,67.73
2023-01-28T15:33:35.879Z,67.82
2023-01-28T15:35:39.156Z,68.18
2023-01-28T15:37:42.285Z,68.09
2023-01-28T15:39:45.373Z,68.15
2023-01-28T15:41:52.974Z,68.44
2023-01-28T15:43:56.103Z,68.74
2023-01-28T15:46:00.512Z,68.67
2023-01-28T15:48:08.924Z,68.86
2023-01-28T15:50:20.557Z,68.85
2023-01-28T15:52:31.612Z,69.20
2023-01-28T15:54:39.848Z,69.24
2023-01-28T15:56:42.913Z,69.32
2023-01-28T15:58:46.339Z,69.30
2023-01-28T16:00:50.554Z,69.39
2023-01-28T16:02:56.153Z,69.58
2023-01-28T16:05:02.778Z,69.67
2023-01-28T16:07:06.348Z,69.88
2023-01-28T16:09:19.990Z,70.12
2023-01-28T16:11:27.231Z,70.26
2023-01-28T16:13:33.910Z,70.38
2023-01-28T16:15:38.483Z,70.66
2023-01-28T16:17:48.125Z,70.79
2023-01-28T16:19:57.146Z,70.75
2023-01-28T16:22:02.283Z,71.12
2023-01-28T16:24:08.075Z,71.15
2023-01-28T16:26:23.205Z,71.42
2023-01-28T16:28:26.419Z,71.56
2023-01-28T16:30:30.420Z,71.66
2023-01-28T16:32:37.506Z,71.88
2023-01-28T16:34:42.276Z,72.08
2023-01-28T16:36:45.367Z,72.27
2023-01-28T16:38:49.815Z,72.46
2023-01-28T16:40:52.790Z,72.36
2023-01-28T16:42:56.562Z,72.65
2023-01-28T16:44:59.925Z,72.66
2023-01-28T16:47:04.597Z,72.97
2023-01-28T16:49:07.904Z,73.18
2023-01-28T16:51:17.064Z,73.17
2023-01-28T16:53:22.580Z,73.33
2023-01-28T16:55:27.433Z,73.26
2023-01-28T16:57:35.069Z,73.40
2023-01-28T16:59:38.114Z,73.53
2023-01-28T17:01:41.254Z,73.60
2023-01-28T17:03:44.442Z,73.51
2023-01-28T17:05:47.744Z,73.61
2023-01-28T17:07:54.182Z,73.64
2023-01-28T17:09:57.288Z,74.11
2023-01-28T17:12:03.630Z,74.10
2023-01-28T17:14:07.085Z,74.33
2023-01-28T17:16:10.184Z,74.48
2023-01-28T17:18:13.237Z,74.57
2023-01-28T17:20:16.437Z,74.72
2023-01-28T17:22:19.491Z,74.56
2023-01-28T17:24:22.591Z,74.63
2023-01-28T17:26:26.706Z,74.66
2023-01-28T17:28:31.407Z,74.59
2023-01-28T17:30:34.577Z,74.72
2023-01-28T17:32:37.679Z,74.78
2023-01-28T17:34:40.839Z,74.76
2023-01-28T17:36:43.991Z,74.94
2023-01-28T17:38:49.307Z,75.01
2023-01-28T17:40:52.484Z,75.00
2023-01-28T17:42:55.829Z,74.88
2023-01-28T17:45:03.125Z,74.79
2023-01-28T17:47:06.599Z,74.92
2023-01-28T17:49:10.056Z,74.92
2023-01-28T17:51:13.887Z,74.92
2023-01-28T17:53:16.927Z,74.81
2023-01-28T17:55:20.690Z,74.72
2023-01-28T17:57:24.088Z,74.65
2023-01-28T17:59:27.138Z,74.79
2023-01-28T18:01:31.998Z,74.83
2023-01-28T18:03:35.006Z,74.77
2023-01-28T18:05:38.072Z,74.83
2023-01-28T18:07:41.191Z,74.66
2023-01-28T18:09:45.835Z,74.68
2023-01-28T18:11:48.999Z,74.68
2023-01-28T18:13:52.540Z,74.42
2023-01-28T18:15:55.600Z,74.59
2023-01-28T18:18:00.150Z,74.65
2023-01-28T18:20:03.854Z,74.61
2023-01-28T18:22:07.382Z,74.54
2023-01-28T18:24:11.285Z,74.84
2023-01-28T18:26:14.462Z,74.76
2023-01-28T18:28:17.563Z,74.79
2023-01-28T18:30:20.730Z,74.96
2023-01-28T18:32:23.904Z,74.86
2023-01-28T18:34:31.558Z,75.05
2023-01-28T18:36:34.654Z,75.02
2023-01-28T18:38:38.036Z,75.13
2023-01-28T18:40:45.149Z,75.24
2023-01-28T18:42:48.298Z,75.20
2023-01-28T18:44:51.778Z,75.36
2023-01-28T18:46:55.391Z,75.43
2023-01-28T18:48:58.863Z,75.57
2023-01-28T18:51:03.489Z,75.67
2023-01-28T18:53:06.567Z,75.80
2023-01-28T18:55:11.148Z,75.95
2023-01-28T18:57:14.666Z,76.01
2023-01-28T18:59:18.426Z,76.03
2023-01-28T19:01:21.869Z,76.07
2023-01-28T19:03:25.855Z,76.16
2023-01-28T19:05:29.515Z,76.31
2023-01-28T19:07:34.383Z,76.41
2023-01-28T19:09:37.941Z,76.59
2023-01-28T19:11:41.585Z,76.77
2023-01-28T19:13:44.766Z,76.85
2023-01-28T19:15:47.852Z,77.11
2023-01-28T19:17:50.957Z,77.42
2023-01-28T19:19:54.058Z,77.70
2023-01-28T19:21:57.167Z,77.80
2023-01-28T19:24:03.122Z,77.91
2023-01-28T19:26:06.965Z,77.92
2023-01-28T19:28:10.184Z,78.17
2023-01-28T19:30:13.828Z,78.69
2023-01-28T19:32:16.934Z,78.76
2023-01-28T19:34:19.993Z,78.95
2023-01-28T19:36:23.673Z,78.92
2023-01-28T19:38:27.041Z,79.04
2023-01-28T19:40:32.090Z,79.43
2023-01-28T19:42:35.129Z,79.56
2023-01-28T19:44:38.193Z,79.68
2023-01-28T19:46:41.612Z,79.80
2023-01-28T19:48:45.264Z,79.99
2023-01-28T19:50:48.436Z,79.95
2023-01-28T19:52:51.648Z,80.26
2023-01-28T19:54:54.714Z,79.98
2023-01-28T19:56:59.168Z,80.21
2023-01-28T19:59:02.303Z,80.44
2023-01-28T20:01:06.973Z,80.31
2023-01-28T20:03:10.158Z,80.49
2023-01-28T20:05:13.379Z,80.76
2023-01-28T20:07:16.656Z,80.82
2023-01-28T20:09:20.956Z,80.91
2023-01-28T20:11:24.892Z,81.08
2023-01-28T20:13:31.337Z,81.23
2023-01-28T20:15:34.392Z,81.42
2023-01-28T20:17:37.903Z,81.35
2023-01-28T20:19:41.160Z,81.42
2023-01-28T20:21:45.113Z,81.58
2023-01-28T20:23:48.735Z,81.46
2023-01-28T20:25:52.499Z,81.59
2023-01-28T20:27:55.572Z,81.67
2023-01-28T20:30:00.077Z,81.97
2023-01-28T20:32:15.845Z,81.87
2023-01-28T20:34:21.230Z,81.92
2023-01-28T20:36:24.437Z,82.03
2023-01-28T20:38:27.594Z,82.13
2023-01-28T20:40:30.783Z,82.25
2023-01-28T20:42:33.899Z,82.29
2023-01-28T20:44:37.328Z,82.43
2023-01-28T20:46:41.909Z,82.38
2023-01-28T20:48:45.163Z,82.44
2023-01-28T20:50:48.209Z,82.56
2023-01-28T20:52:51.287Z,82.60
2023-01-28T20:54:54.277Z,82.62
2023-01-28T20:56:57.556Z,82.93
2023-01-28T20:59:02.544Z,82.86
2023-01-28T21:01:06.003Z,82.64
2023-01-28T21:03:10.560Z,82.81
2023-01-28T21:05:13.690Z,83.11
2023-01-28T21:07:16.776Z,82.98
2023-01-28T21:09:19.789Z,83.08
2023-01-28T21:11:24.241Z,83.24
2023-01-28T21:13:27.323Z,83.32
2023-01-28T21:15:30.444Z,83.34
2023-01-28T21:17:33.489Z,83.33
2023-01-28T21:19:37.971Z,83.47
2023-01-28T21:21:42.665Z,83.40
2023-01-28T21:23:45.863Z,83.56
2023-01-28T21:25:50.249Z,83.55
2023-01-28T21:27:53.970Z,83.78
2023-01-28T21:29:57.114Z,83.70
2023-01-28T21:32:00.215Z,83.60
2023-01-28T21:34:03.379Z,83.81
2023-01-28T21:36:13.073Z,83.56
2023-01-28T21:38:16.148Z,83.92
2023-01-28T21:40:19.618Z,83.84
2023-01-28T21:42:22.713Z,83.82
2023-01-28T21:44:25.903Z,84.04
2023-01-28T21:46:31.306Z,84.03
2023-01-28T21:48:34.503Z,84.09
2023-01-28T21:50:57.556Z,83.93
2023-01-28T21:53:02.058Z,84.07
2023-01-28T21:55:05.832Z,84.00
2023-01-28T21:57:09.033Z,84.09
2023-01-28T21:59:29.694Z,84.21
2023-01-28T22:01:32.854Z,84.32
2023-01-28T22:03:35.890Z,84.36
2023-01-28T22:05:39.063Z,84.38
2023-01-28T22:07:42.100Z,84.49
2023-01-28T22:09:47.805Z,84.39
2023-01-28T22:11:50.900Z,84.56
2023-01-28T22:13:53.968Z,84.61
2023-01-28T22:15:57.035Z,84.67
2023-01-28T22:18:00.039Z,84.59
2023-01-28T22:20:03.341Z,84.70
2023-01-28T22:22:07.285Z,84.70
2023-01-28T22:24:12.268Z,84.69
2023-01-28T22:26:16.755Z,84.81
2023-01-28T22:28:19.943Z,84.93
2023-01-28T22:30:23.066Z,84.93
2023-01-28T22:32:26.662Z,84.89
2023-01-28T22:34:29.729Z,84.87
2023-01-28T22:36:33.921Z,84.75
2023-01-28T22:38:39.253Z,84.95
2023-01-28T22:40:42.406Z,84.83
2023-01-28T22:42:46.940Z,84.85
2023-01-28T22:44:50.725Z,84.91
2023-01-28T22:46:53.917Z,84.93
2023-01-28T22:48:57.182Z,84.82
2023-01-28T22:51:03.507Z,84.99
2023-01-28T22:53:06.599Z,85.04
2023-01-28T22:55:10.820Z,84.97
2023-01-28T22:57:13.851Z,84.92
2023-01-28T22:59:18.236Z,85.13
2023-01-28T23:01:21.313Z,85.17
2023-01-28T23:03:24.748Z,85.33
2023-01-28T23:05:28.106Z,85.17
2023-01-28T23:07:31.252Z,85.30
2023-01-28T23:09:34.402Z,85.34
2023-01-28T23:11:37.572Z,85.35
2023-01-28T23:13:54.481Z,85.42
2023-01-28T23:16:16.265Z,85.47
2023-01-28T23:18:39.525Z,85.61
2023-01-28T23:21:00.034Z,85.48
2023-01-28T23:23:20.812Z,85.63
2023-01-28T23:25:24.970Z,85.53
2023-01-28T23:27:28.057Z,85.71
2023-01-28T23:29:32.265Z,85.58
2023-01-28T23:31:36.717Z,85.68
2023-01-28T23:33:39.794Z,85.75
2023-01-28T23:35:42.900Z,85.73
2023-01-28T23:37:46.635Z,85.75
2023-01-28T23:39:49.794Z,85.95
2023-01-28T23:41:52.961Z,85.64
2023-01-28T23:43:56.112Z,85.85
2023-01-28T23:45:59.163Z,85.76
2023-01-28T23:48:04.381Z,85.79
2023-01-28T23:50:07.969Z,85.68
2023-01-28T23:52:11.546Z,85.84
2023-01-28T23:54:14.581Z,85.92
2023-01-28T23:56:18.313Z,86.02
2023-01-28T23:58:40.976Z,85.99
